createdAt,value
2019-01-13T00:01:32.666Z,6.17
2019-01-13T00:04:02.930Z,5.73
2019-01-13T00:06:33.268Z,5.37
2019-01-13T00:09:03.704Z,5.27
2019-01-13T00:11:34.188Z,5.57
2019-01-13T00:14:04.584Z,5.33
2019-01-13T00:16:34.870Z,5.20
2019-01-13T00:19:06.870Z,6.30
2019-01-13T00:21:37.120Z,5.90
2019-01-13T00:24:07.507Z,5.97
2019-01-13T00:26:37.965Z,5.27
2019-01-13T00:29:08.220Z,5.57
2019-01-13T00:31:38.513Z,4.70
2019-01-13T00:34:08.837Z,6.03
2019-01-13T00:36:39.141Z,6.60
2019-01-13T00:39:09.771Z,5.93
2019-01-13T00:41:40.081Z,4.87
2019-01-13T00:44:10.477Z,4.90
2019-01-13T00:46:40.743Z,6.63
2019-01-13T00:49:11.055Z,5.37
2019-01-13T00:51:41.381Z,4.47
2019-01-13T00:54:11.643Z,5.30
2019-01-13T00:56:41.943Z,5.03
2019-01-13T00:59:12.622Z,5.77
2019-01-13T01:01:42.951Z,5.07
2019-01-13T01:04:13.226Z,8.43
2019-01-13T01:06:43.547Z,13.43
2019-01-13T01:09:14.335Z,15.13
2019-01-13T01:11:44.675Z,6.07
2019-01-13T01:14:15.100Z,5.90
2019-01-13T01:16:45.403Z,5.50
2019-01-13T01:19:15.789Z,5.47
2019-01-13T01:21:46.045Z,5.70
2019-01-13T01:24:16.530Z,6.60
2019-01-13T01:26:46.797Z,6.03
2019-01-13T01:29:17.195Z,6.37
2019-01-13T01:31:48.929Z,5.83
2019-01-13T01:34:19.250Z,7.17
2019-01-13T01:36:49.571Z,6.37
2019-01-13T01:39:19.842Z,6.60
2019-01-13T01:41:51.092Z,6.00
2019-01-13T01:44:21.512Z,6.63
2019-01-13T01:46:53.430Z,6.47
2019-01-13T01:49:27.403Z,5.57
2019-01-13T01:51:57.714Z,6.27
2019-01-13T01:54:28.019Z,6.10
2019-01-13T01:56:58.343Z,6.40
2019-01-13T01:59:28.827Z,6.93
2019-01-13T02:01:59.094Z,5.83
2019-01-13T02:04:29.345Z,6.13
2019-01-13T02:07:02.663Z,6.40
2019-01-13T02:09:32.991Z,6.40
2019-01-13T02:12:03.335Z,6.40
2019-01-13T02:14:33.585Z,5.20
2019-01-13T02:17:03.995Z,5.77
2019-01-13T02:19:34.300Z,5.90
2019-01-13T02:22:04.607Z,6.53
2019-01-13T02:24:36.177Z,6.20
2019-01-13T02:27:07.030Z,6.80
2019-01-13T02:29:37.717Z,5.93
2019-01-13T02:32:08.084Z,6.20
2019-01-13T02:34:38.340Z,6.13
2019-01-13T02:37:08.591Z,6.83
2019-01-13T02:39:38.956Z,6.60
2019-01-13T02:42:09.310Z,6.93
2019-01-13T02:44:39.705Z,7.03
2019-01-13T02:47:10.043Z,6.10
2019-01-13T02:49:40.395Z,6.40
2019-01-13T02:52:10.625Z,6.37
2019-01-13T02:54:40.947Z,6.70
2019-01-13T02:57:11.168Z,7.60
2019-01-13T02:59:43.081Z,6.53
2019-01-13T03:02:13.455Z,7.10
2019-01-13T03:04:43.773Z,7.93
2019-01-13T03:07:14.066Z,8.07
2019-01-13T03:09:45.153Z,7.13
2019-01-13T03:12:15.443Z,8.30
2019-01-13T03:14:45.836Z,6.97
2019-01-13T03:17:23.727Z,7.30
2019-01-13T03:19:50.889Z,6.87
2019-01-13T03:22:21.150Z,7.93
2019-01-13T03:24:51.642Z,8.47
2019-01-13T03:27:22.106Z,8.00
2019-01-13T03:29:52.451Z,7.17
2019-01-13T03:32:22.767Z,6.50
2019-01-13T03:35:00.478Z,6.67
2019-01-13T03:37:31.908Z,6.43
2019-01-13T03:40:04.981Z,6.17
2019-01-13T03:42:37.724Z,6.33
2019-01-13T03:45:09.253Z,6.80
2019-01-13T03:47:39.501Z,6.13
2019-01-13T03:50:12.669Z,4.97
2019-01-13T03:52:42.964Z,5.10
2019-01-13T03:55:13.600Z,5.00
2019-01-13T03:57:43.870Z,5.73
2019-01-13T04:00:19.226Z,6.80
2019-01-13T04:02:49.624Z,7.90
2019-01-13T04:05:19.976Z,8.23
2019-01-13T04:07:50.199Z,8.17
2019-01-13T04:10:20.451Z,9.20
2019-01-13T04:12:51.827Z,9.93
2019-01-13T04:15:59.748Z,12.17
2019-01-13T04:18:32.637Z,11.97
2019-01-13T04:21:03.095Z,12.67
2019-01-13T04:23:33.431Z,12.77
2019-01-13T04:26:03.805Z,11.07
2019-01-13T04:28:34.195Z,12.00
2019-01-13T04:31:04.576Z,11.80
2019-01-13T04:33:34.965Z,12.63
2019-01-13T04:36:05.479Z,9.97
2019-01-13T04:38:35.905Z,10.53
2019-01-13T04:41:06.275Z,8.17
2019-01-13T04:43:36.547Z,9.60
2019-01-13T04:46:06.881Z,8.33
2019-01-13T04:48:37.134Z,9.50
2019-01-13T04:51:10.061Z,9.00
2019-01-13T04:53:40.304Z,9.70
2019-01-13T04:56:10.725Z,9.20
2019-01-13T04:58:41.024Z,9.63
2019-01-13T05:01:11.459Z,9.23
2019-01-13T05:03:41.783Z,8.40
2019-01-13T05:06:12.073Z,10.63
2019-01-13T05:08:42.342Z,10.10
2019-01-13T05:11:12.608Z,10.53
2019-01-13T05:13:42.895Z,9.97
2019-01-13T05:16:13.264Z,9.70
2019-01-13T05:18:43.672Z,8.67
2019-01-13T05:21:14.080Z,8.70
2019-01-13T05:23:44.337Z,9.07
2019-01-13T05:26:14.620Z,10.13
2019-01-13T05:28:44.882Z,9.90
2019-01-13T05:31:15.196Z,9.53
2019-01-13T05:33:45.495Z,10.40
2019-01-13T05:36:16.004Z,8.63
2019-01-13T05:38:46.279Z,8.10
2019-01-13T05:41:16.562Z,7.93
2019-01-13T05:43:46.823Z,9.70
2019-01-13T05:46:17.223Z,9.67
2019-01-13T05:48:47.520Z,8.07
2019-01-13T05:51:17.792Z,8.63
2019-01-13T05:53:48.046Z,8.93
2019-01-13T05:56:18.420Z,9.40
2019-01-13T05:58:48.682Z,7.87
2019-01-13T06:01:18.956Z,8.17
2019-01-13T06:03:49.356Z,7.00
2019-01-13T06:06:19.628Z,8.30
2019-01-13T06:08:51.068Z,8.93
2019-01-13T06:11:21.395Z,8.27
2019-01-13T06:13:51.617Z,7.07
2019-01-13T06:16:21.888Z,7.30
2019-01-13T06:18:52.136Z,6.43
2019-01-13T06:21:22.664Z,6.77
2019-01-13T06:23:52.928Z,8.53
2019-01-13T06:26:25.992Z,7.80
2019-01-13T06:28:56.311Z,8.30
2019-01-13T06:31:26.620Z,6.80
2019-01-13T06:33:56.991Z,6.87
2019-01-13T06:36:27.333Z,7.20
2019-01-13T06:38:57.561Z,7.73
2019-01-13T06:41:27.841Z,7.33
2019-01-13T06:44:04.748Z,6.10
2019-01-13T06:46:35.288Z,8.57
2019-01-13T06:49:05.739Z,6.87
2019-01-13T06:51:35.990Z,6.43
2019-01-13T06:54:06.369Z,6.50
2019-01-13T06:56:36.796Z,7.77
2019-01-13T06:59:07.030Z,6.90
2019-01-13T07:01:37.280Z,7.10
2019-01-13T07:04:07.516Z,7.03
2019-01-13T07:06:37.782Z,6.70
2019-01-13T07:09:08.837Z,6.30
2019-01-13T07:11:39.112Z,6.83
2019-01-13T07:14:09.348Z,7.13
2019-01-13T07:16:39.654Z,7.37
2019-01-13T07:19:13.491Z,6.80
2019-01-13T07:21:44.285Z,7.13
2019-01-13T07:24:14.555Z,7.70
2019-01-13T07:26:44.861Z,6.07
2019-01-13T07:29:15.185Z,6.87
2019-01-13T07:31:45.524Z,8.93
2019-01-13T07:34:15.808Z,7.23
2019-01-13T07:36:48.494Z,6.83
2019-01-13T07:39:18.791Z,5.53
2019-01-13T07:41:49.185Z,7.00
2019-01-13T07:44:19.833Z,6.43
2019-01-13T07:46:50.199Z,6.47
2019-01-13T07:49:22.098Z,6.70
2019-01-13T07:51:54.124Z,6.87
2019-01-13T07:54:24.475Z,6.33
2019-01-13T07:56:54.816Z,7.83
2019-01-13T07:59:25.598Z,6.50
2019-01-13T08:01:56.092Z,6.80
2019-01-13T08:04:26.470Z,7.33
2019-01-13T08:06:57.033Z,5.83
2019-01-13T08:09:27.430Z,7.20
2019-01-13T08:12:00.744Z,6.37
2019-01-13T08:14:31.174Z,6.60
2019-01-13T08:17:01.590Z,6.37
2019-01-13T08:19:32.058Z,6.30
2019-01-13T08:22:02.557Z,6.60
2019-01-13T08:24:32.887Z,6.27
2019-01-13T08:27:04.849Z,6.47
2019-01-13T08:29:37.326Z,6.63
2019-01-13T08:32:07.771Z,5.93
2019-01-13T08:34:38.127Z,6.03
2019-01-13T08:37:08.595Z,5.53
2019-01-13T08:39:38.965Z,5.93
2019-01-13T08:42:09.336Z,5.33
2019-01-13T08:44:39.611Z,6.07
2019-01-13T08:47:12.912Z,5.93
2019-01-13T08:49:43.189Z,5.87
2019-01-13T08:52:13.500Z,5.53
2019-01-13T08:54:43.954Z,5.03
2019-01-13T08:57:14.713Z,5.83
2019-01-13T08:59:45.103Z,6.03
2019-01-13T09:02:15.356Z,5.87
2019-01-13T09:04:48.041Z,6.00
2019-01-13T09:07:18.318Z,7.27
2019-01-13T09:09:48.593Z,6.53
2019-01-13T09:12:20.603Z,7.13
2019-01-13T09:14:51.156Z,7.23
2019-01-13T09:17:21.396Z,9.03
2019-01-13T09:19:51.741Z,6.90
2019-01-13T09:22:22.259Z,7.13
2019-01-13T09:25:03.603Z,6.47
2019-01-13T09:27:34.216Z,6.67
2019-01-13T09:30:06.190Z,6.37
2019-01-13T09:32:39.487Z,7.30
2019-01-13T09:35:09.537Z,6.53
2019-01-13T09:37:40.039Z,7.33
2019-01-13T09:40:12.235Z,6.17
2019-01-13T09:42:43.498Z,7.87
2019-01-13T09:45:13.891Z,7.07
2019-01-13T09:47:44.298Z,6.93
2019-01-13T09:50:16.475Z,6.83
2019-01-13T09:52:47.500Z,7.13
2019-01-13T09:55:19.786Z,6.10
2019-01-13T09:57:50.212Z,7.33
2019-01-13T10:00:34.432Z,7.03
2019-01-13T10:03:06.187Z,6.03
2019-01-13T10:05:36.789Z,6.63
2019-01-13T10:08:07.875Z,7.00
2019-01-13T10:10:40.711Z,7.53
2019-01-13T10:13:11.111Z,7.70
2019-01-13T10:15:41.663Z,7.70
2019-01-13T10:18:12.510Z,7.37
2019-01-13T10:20:42.951Z,8.00
2019-01-13T10:23:13.617Z,6.90
2019-01-13T10:25:44.276Z,7.30
2019-01-13T10:28:16.080Z,6.60
2019-01-13T10:30:46.691Z,7.00
2019-01-13T10:33:17.410Z,7.13
2019-01-13T10:35:48.278Z,7.27
2019-01-13T10:38:18.890Z,7.13
2019-01-13T10:40:49.548Z,6.97
2019-01-13T10:43:20.059Z,7.77
2019-01-13T10:45:52.633Z,8.13
2019-01-13T10:48:24.456Z,6.33
2019-01-13T10:50:56.241Z,7.40
2019-01-13T10:53:26.714Z,7.13
2019-01-13T10:55:57.199Z,7.90
2019-01-13T10:58:27.655Z,6.27
2019-01-13T11:00:58.009Z,7.87
2019-01-13T11:03:29.812Z,8.03
2019-01-13T11:06:00.205Z,7.50
2019-01-13T11:08:30.701Z,8.20
2019-01-13T11:11:01.047Z,8.03
2019-01-13T11:13:31.652Z,8.07
2019-01-13T11:16:01.905Z,7.93
2019-01-13T11:18:32.344Z,7.13
2019-01-13T11:21:02.652Z,7.10
2019-01-13T11:23:33.110Z,6.80
2019-01-13T11:26:03.696Z,7.30
2019-01-13T11:28:34.062Z,7.80
2019-01-13T11:31:04.526Z,7.67
2019-01-13T11:33:34.887Z,7.70
2019-01-13T11:36:05.314Z,6.40
2019-01-13T11:38:35.730Z,6.83
2019-01-13T11:41:06.122Z,7.20
2019-01-13T11:43:36.393Z,6.97
2019-01-13T11:46:06.728Z,6.63
2019-01-13T11:48:37.144Z,6.77
2019-01-13T11:51:07.437Z,6.70
2019-01-13T11:53:37.966Z,7.30
2019-01-13T11:56:08.416Z,6.50
2019-01-13T11:58:38.804Z,7.23
2019-01-13T12:01:09.532Z,6.03
2019-01-13T12:03:39.815Z,6.67
2019-01-13T12:06:11.643Z,7.63
2019-01-13T12:08:41.930Z,6.10
2019-01-13T12:11:12.229Z,9.00
2019-01-13T12:13:48.400Z,6.87
2019-01-13T12:16:18.712Z,7.20
2019-01-13T12:18:50.692Z,6.63
2019-01-13T12:21:21.027Z,6.00
2019-01-13T12:23:51.463Z,6.23
2019-01-13T12:26:21.826Z,6.33
2019-01-13T12:28:52.322Z,6.90
2019-01-13T12:31:22.632Z,7.13
2019-01-13T12:33:53.094Z,7.70
2019-01-13T12:36:23.352Z,6.73
2019-01-13T12:38:55.444Z,6.23
2019-01-13T12:41:28.844Z,6.77
2019-01-13T12:43:59.203Z,5.63
2019-01-13T12:46:29.769Z,5.30
2019-01-13T12:49:00.742Z,6.80
2019-01-13T12:51:32.201Z,6.63
2019-01-13T12:54:03.040Z,7.03
2019-01-13T12:56:33.570Z,6.93
2019-01-13T12:59:04.168Z,5.97
2019-01-13T13:01:34.952Z,5.80
2019-01-13T13:04:05.455Z,7.30
2019-01-13T13:06:35.976Z,6.73
2019-01-13T13:09:09.680Z,5.80
2019-01-13T13:11:40.274Z,6.23
2019-01-13T13:14:10.874Z,5.60
2019-01-13T13:16:41.232Z,6.40
2019-01-13T13:19:11.801Z,5.47
2019-01-13T13:21:42.188Z,5.67
2019-01-13T13:24:12.552Z,5.67
2019-01-13T13:26:42.898Z,6.10
2019-01-13T13:29:13.358Z,5.37
2019-01-13T13:31:43.760Z,5.83
2019-01-13T13:34:14.158Z,5.37
2019-01-13T13:36:44.446Z,5.40
2019-01-13T13:39:14.832Z,5.33
2019-01-13T13:41:45.270Z,5.80
2019-01-13T13:44:15.664Z,5.97
2019-01-13T13:46:45.988Z,5.70
2019-01-13T13:49:16.343Z,6.20
2019-01-13T13:51:46.736Z,5.60
2019-01-13T13:54:17.120Z,6.07
2019-01-13T13:56:47.472Z,5.67
2019-01-13T13:59:17.796Z,6.03
2019-01-13T14:01:48.160Z,5.67
2019-01-13T14:04:22.171Z,5.00
2019-01-13T14:06:54.135Z,5.83
2019-01-13T14:09:24.493Z,6.30
2019-01-13T14:11:54.893Z,5.30
2019-01-13T14:14:25.244Z,5.50
2019-01-13T14:16:55.651Z,6.33
2019-01-13T14:19:25.987Z,6.27
2019-01-13T14:21:56.335Z,6.70
2019-01-13T14:24:26.830Z,5.10
2019-01-13T14:26:57.113Z,5.43
2019-01-13T14:29:27.519Z,6.60
2019-01-13T14:31:57.812Z,5.90
2019-01-13T14:34:28.135Z,5.63
2019-01-13T14:36:58.469Z,5.57
2019-01-13T14:39:28.821Z,5.10
2019-01-13T14:41:59.143Z,4.67
2019-01-13T14:44:32.119Z,5.20
2019-01-13T14:47:02.595Z,5.63
2019-01-13T14:49:33.080Z,5.47
2019-01-13T14:52:03.519Z,5.73
2019-01-13T14:54:33.916Z,6.50
2019-01-13T14:57:09.448Z,5.30
2019-01-13T14:59:40.041Z,4.57
2019-01-13T15:02:10.445Z,5.93
2019-01-13T15:04:42.883Z,6.27
2019-01-13T15:07:13.497Z,5.87
2019-01-13T15:09:44.119Z,6.50
2019-01-13T15:12:15.012Z,5.40
2019-01-13T15:14:45.530Z,6.40
2019-01-13T15:17:15.967Z,6.70
2019-01-13T15:19:46.339Z,5.80
2019-01-13T15:22:17.063Z,5.77
2019-01-13T15:24:48.754Z,5.93
2019-01-13T15:27:20.612Z,6.60
2019-01-13T15:29:51.208Z,7.07
2019-01-13T15:32:23.396Z,6.60
2019-01-13T15:34:53.744Z,7.33
2019-01-13T15:37:24.135Z,5.53
2019-01-13T15:39:54.463Z,5.77
2019-01-13T15:42:24.944Z,5.77
2019-01-13T15:44:55.342Z,6.07
2019-01-13T15:47:25.768Z,6.30
2019-01-13T15:49:56.212Z,4.77
2019-01-13T15:52:26.669Z,7.07
2019-01-13T15:54:57.000Z,5.80
2019-01-13T15:57:29.138Z,4.97
2019-01-13T15:59:59.557Z,5.23
2019-01-13T16:02:29.886Z,6.03
2019-01-13T16:05:00.271Z,6.30
2019-01-13T16:07:30.965Z,4.80
2019-01-13T16:10:02.905Z,5.33
2019-01-13T16:12:33.246Z,6.53
2019-01-13T16:15:06.566Z,6.40
2019-01-13T16:17:36.983Z,5.93
2019-01-13T16:20:11.785Z,4.30
2019-01-13T16:22:42.272Z,4.63
2019-01-13T16:25:12.684Z,4.00
2019-01-13T16:27:43.079Z,5.40
2019-01-13T16:30:16.787Z,5.83
2019-01-13T16:32:47.283Z,5.80
2019-01-13T16:35:17.797Z,5.83
2019-01-13T16:37:48.304Z,4.47
2019-01-13T16:40:20.436Z,6.07
2019-01-13T16:42:50.875Z,4.90
2019-01-13T16:45:21.798Z,4.43
2019-01-13T16:47:52.191Z,5.77
2019-01-13T16:50:26.662Z,5.83
2019-01-13T16:52:58.162Z,5.93
2019-01-13T16:55:30.225Z,6.47
2019-01-13T16:58:00.700Z,5.73
2019-01-13T17:00:32.136Z,6.10
2019-01-13T17:03:02.655Z,5.70
2019-01-13T17:05:34.271Z,6.90
2019-01-13T17:08:04.701Z,6.13
2019-01-13T17:10:35.963Z,6.33
2019-01-13T17:13:06.377Z,5.60
2019-01-13T17:15:37.654Z,5.20
2019-01-13T17:18:09.052Z,6.03
2019-01-13T17:20:39.509Z,5.80
2019-01-13T17:23:10.036Z,5.60
2019-01-13T17:25:41.978Z,5.03
2019-01-13T17:28:13.889Z,5.07
2019-01-13T17:30:44.338Z,5.47
2019-01-13T17:33:14.763Z,5.23
2019-01-13T17:35:45.147Z,6.60
2019-01-13T17:38:15.473Z,5.57
2019-01-13T17:40:45.977Z,5.47
2019-01-13T17:43:17.889Z,6.00
2019-01-13T17:45:48.285Z,5.60
2019-01-13T17:48:18.621Z,6.13
2019-01-13T17:50:50.575Z,5.67
2019-01-13T17:53:20.967Z,5.80
2019-01-13T17:55:51.291Z,6.90
2019-01-13T17:58:21.687Z,6.13
2019-01-13T18:01:30.217Z,6.30
2019-01-13T18:04:01.964Z,6.40
2019-01-13T18:06:32.415Z,6.30
2019-01-13T18:09:04.497Z,6.57
2019-01-13T18:11:35.089Z,6.70
2019-01-13T18:14:06.196Z,6.73
2019-01-13T18:16:36.564Z,7.27
2019-01-13T18:19:06.926Z,7.93
2019-01-13T18:21:37.388Z,5.73
2019-01-13T18:24:07.751Z,6.50
2019-01-13T18:26:39.103Z,6.60
2019-01-13T18:29:09.475Z,6.47
2019-01-13T18:31:39.913Z,7.20
2019-01-13T18:34:10.300Z,7.60
2019-01-13T18:36:43.101Z,6.67
2019-01-13T18:39:13.569Z,6.97
2019-01-13T18:41:43.979Z,6.23
2019-01-13T18:44:14.340Z,6.50
2019-01-13T18:46:44.730Z,6.73
2019-01-13T18:49:14.961Z,6.47
2019-01-13T18:51:45.435Z,5.87
2019-01-13T18:54:15.658Z,7.53
2019-01-13T18:56:46.071Z,7.70
2019-01-13T18:59:16.525Z,6.40
2019-01-13T19:01:46.975Z,6.43
2019-01-13T19:04:17.309Z,6.47
2019-01-13T19:06:47.789Z,6.80
2019-01-13T19:09:18.705Z,6.27
2019-01-13T19:11:52.113Z,6.13
2019-01-13T19:14:40.312Z,7.23
2019-01-13T19:17:15.480Z,5.73
2019-01-13T19:20:00.443Z,5.63
2019-01-13T19:22:32.764Z,6.83
2019-01-13T19:25:26.533Z,6.63
2019-01-13T19:27:56.931Z,6.57
2019-01-13T19:30:27.455Z,5.80
2019-01-13T19:33:00.868Z,6.73
2019-01-13T19:35:32.232Z,6.27
2019-01-13T19:38:02.780Z,6.20
2019-01-13T19:40:33.253Z,5.43
2019-01-13T19:43:04.024Z,6.10
2019-01-13T19:45:34.577Z,5.10
2019-01-13T19:48:05.311Z,5.00
2019-01-13T19:50:35.727Z,5.60
2019-01-13T19:53:06.419Z,5.10
2019-01-13T19:55:36.803Z,6.53
2019-01-13T19:58:07.255Z,5.50
2019-01-13T20:00:38.199Z,4.07
2019-01-13T20:03:09.289Z,4.73
2019-01-13T20:05:39.684Z,4.47
2019-01-13T20:08:10.149Z,4.87
2019-01-13T20:10:40.447Z,4.43
2019-01-13T20:13:10.965Z,5.17
2019-01-13T20:15:41.311Z,4.43
2019-01-13T20:18:14.227Z,5.50
2019-01-13T20:20:44.636Z,4.87
2019-01-13T20:23:15.037Z,4.87
2019-01-13T20:25:45.388Z,4.70
2019-01-13T20:28:15.926Z,4.30
2019-01-13T20:30:49.325Z,5.07
2019-01-13T20:33:19.924Z,5.90
2019-01-13T20:35:50.565Z,5.53
2019-01-13T20:38:21.038Z,5.23
2019-01-13T20:40:51.393Z,5.57
2019-01-13T20:43:21.819Z,6.30
2019-01-13T20:45:52.161Z,4.83
2019-01-13T20:48:23.197Z,5.33
2019-01-13T20:50:53.611Z,4.47
2019-01-13T20:53:25.586Z,5.30
2019-01-13T20:55:55.948Z,4.43
2019-01-13T20:58:26.340Z,3.50
2019-01-13T21:00:56.767Z,3.00
2019-01-13T21:03:27.398Z,2.27
2019-01-13T21:05:57.846Z,3.10
2019-01-13T21:08:28.342Z,2.10
2019-01-13T21:11:01.568Z,3.67
2019-01-13T21:13:33.668Z,3.37
2019-01-13T21:16:03.932Z,3.77
2019-01-13T21:18:34.441Z,4.67
2019-01-13T21:21:04.845Z,4.93
2019-01-13T21:23:35.210Z,5.43
2019-01-13T21:26:05.736Z,6.50
2019-01-13T21:28:36.056Z,5.03
2019-01-13T21:31:06.757Z,5.83
2019-01-13T21:33:37.349Z,4.90
2019-01-13T21:36:07.757Z,5.30
2019-01-13T21:38:38.323Z,6.77
2019-01-13T21:41:08.651Z,6.10
2019-01-13T21:43:39.044Z,5.97
2019-01-13T21:46:09.503Z,5.53
2019-01-13T21:48:41.521Z,6.20
2019-01-13T21:51:11.809Z,6.20
2019-01-13T21:53:43.234Z,6.47
2019-01-13T21:56:13.760Z,6.33
2019-01-13T21:58:51.051Z,6.07
2019-01-13T22:01:18.718Z,5.87
2019-01-13T22:03:49.134Z,7.00
2019-01-13T22:06:19.495Z,5.70
2019-01-13T22:08:56.111Z,5.47
2019-01-13T22:11:22.102Z,6.33
2019-01-13T22:13:52.439Z,5.80
2019-01-13T22:16:23.901Z,5.43
2019-01-13T22:18:54.277Z,4.83
2019-01-13T22:21:26.641Z,3.30
2019-01-13T22:23:57.064Z,3.60
2019-01-13T22:26:27.433Z,5.80
2019-01-13T22:28:57.757Z,5.67
2019-01-13T22:31:28.055Z,5.63
2019-01-13T22:33:58.345Z,6.10
2019-01-13T22:36:30.177Z,5.77
2019-01-13T22:39:00.469Z,6.23
2019-01-13T22:41:32.383Z,5.90
2019-01-13T22:44:03.588Z,7.00
2019-01-13T22:46:33.912Z,5.50
2019-01-13T22:49:04.630Z,4.50
2019-01-13T22:51:34.951Z,4.97
2019-01-13T22:54:05.394Z,6.00
2019-01-13T22:56:35.696Z,5.30
2019-01-13T22:59:06.104Z,4.93
2019-01-13T23:01:43.703Z,5.63
2019-01-13T23:04:18.225Z,5.17
2019-01-13T23:06:48.615Z,6.17
2019-01-13T23:09:18.964Z,5.57
2019-01-13T23:11:49.205Z,12.60
2019-01-13T23:14:19.583Z,8.57
2019-01-13T23:16:51.616Z,6.67
2019-01-13T23:19:21.922Z,13.50
2019-01-13T23:21:52.185Z,5.00
2019-01-13T23:24:23.510Z,6.77
2019-01-13T23:26:54.084Z,7.23
2019-01-13T23:29:29.250Z,4.93
2019-01-13T23:31:59.843Z,3.03
2019-01-13T23:34:31.053Z,7.67
2019-01-13T23:37:01.545Z,7.00
2019-01-13T23:39:32.053Z,6.77
2019-01-13T23:42:02.395Z,7.10
2019-01-13T23:44:32.690Z,6.17
2019-01-13T23:47:03.018Z,8.67
2019-01-13T23:49:33.381Z,4.33
2019-01-13T23:52:03.708Z,4.80
2019-01-13T23:54:34.247Z,3.50
2019-01-13T23:57:04.556Z,3.33
2019-01-13T23:59:34.941Z,2.57
